sensor_id;sensor_type;location;lat;lon;timestamp;P1;durP1;ratioP1;P2;durP2;ratioP2
75129;SDS011;63703;44.716;37.846;2023-02-28T00:00:22;10.68;;;6.68;;
75129;SDS011;63703;44.716;37.846;2023-02-28T00:02:49;14.82;;;6.95;;
75129;SDS011;63703;44.716;37.846;2023-02-28T00:05:16;9.82;;;7.20;;
75129;SDS011;63703;44.716;37.846;2023-02-28T00:07:43;13.52;;;6.13;;
75129;SDS011;63703;44.716;37.846;2023-02-28T00:10:10;9.43;;;6.30;;
75129;SDS011;63703;44.716;37.846;2023-02-28T00:12:38;11.98;;;7.00;;
75129;SDS011;63703;44.716;37.846;2023-02-28T00:15:05;14.25;;;6.82;;
75129;SDS011;63703;44.716;37.846;2023-02-28T00:17:32;11.68;;;6.72;;
75129;SDS011;63703;44.716;37.846;2023-02-28T00:19:58;10.93;;;6.53;;
75129;SDS011;63703;44.716;37.846;2023-02-28T00:22:41;13.38;;;7.07;;
75129;SDS011;63703;44.716;37.846;2023-02-28T00:25:09;11.50;;;7.18;;
75129;SDS011;63703;44.716;37.846;2023-02-28T00:27:36;10.77;;;6.18;;
75129;SDS011;63703;44.716;37.846;2023-02-28T00:30:04;12.45;;;6.13;;
75129;SDS011;63703;44.716;37.846;2023-02-28T00:32:33;11.95;;;6.47;;
75129;SDS011;63703;44.716;37.846;2023-02-28T00:35:00;11.13;;;7.05;;
75129;SDS011;63703;44.716;37.846;2023-02-28T00:37:27;14.30;;;6.32;;
75129;SDS011;63703;44.716;37.846;2023-02-28T00:39:53;15.38;;;7.20;;
75129;SDS011;63703;44.716;37.846;2023-02-28T00:42:19;18.60;;;8.50;;
75129;SDS011;63703;44.716;37.846;2023-02-28T00:44:46;13.02;;;6.57;;
75129;SDS011;63703;44.716;37.846;2023-02-28T00:47:12;12.63;;;6.13;;
75129;SDS011;63703;44.716;37.846;2023-02-28T00:49:38;11.20;;;6.28;;
75129;SDS011;63703;44.716;37.846;2023-02-28T00:52:04;9.60;;;5.82;;
75129;SDS011;63703;44.716;37.846;2023-02-28T00:54:30;13.02;;;6.85;;
75129;SDS011;63703;44.716;37.846;2023-02-28T00:56:56;11.93;;;6.28;;
75129;SDS011;63703;44.716;37.846;2023-02-28T00:59:24;9.60;;;6.93;;
75129;SDS011;63703;44.716;37.846;2023-02-28T01:01:50;10.95;;;6.93;;
75129;SDS011;63703;44.716;37.846;2023-02-28T01:04:16;16.33;;;6.88;;
75129;SDS011;63703;44.716;37.846;2023-02-28T01:06:42;12.82;;;7.05;;
75129;SDS011;63703;44.716;37.846;2023-02-28T01:09:09;14.63;;;6.47;;
75129;SDS011;63703;44.716;37.846;2023-02-28T01:11:35;12.32;;;6.55;;
75129;SDS011;63703;44.716;37.846;2023-02-28T01:14:01;10.20;;;6.53;;
75129;SDS011;63703;44.716;37.846;2023-02-28T01:16:29;11.20;;;7.60;;
75129;SDS011;63703;44.716;37.846;2023-02-28T01:18:55;10.68;;;6.53;;
75129;SDS011;63703;44.716;37.846;2023-02-28T01:21:22;9.55;;;6.53;;
75129;SDS011;63703;44.716;37.846;2023-02-28T01:23:48;12.38;;;7.28;;
75129;SDS011;63703;44.716;37.846;2023-02-28T01:26:19;9.23;;;6.00;;
75129;SDS011;63703;44.716;37.846;2023-02-28T01:28:46;8.93;;;6.40;;
75129;SDS011;63703;44.716;37.846;2023-02-28T01:31:14;12.68;;;3.85;;
75129;SDS011;63703;44.716;37.846;2023-02-28T01:33:40;11.60;;;6.70;;
75129;SDS011;63703;44.716;37.846;2023-02-28T01:36:08;9.18;;;5.50;;
75129;SDS011;63703;44.716;37.846;2023-02-28T01:38:36;11.05;;;6.07;;
75129;SDS011;63703;44.716;37.846;2023-02-28T01:41:03;13.10;;;6.57;;
75129;SDS011;63703;44.716;37.846;2023-02-28T01:46:23;10.30;;;6.18;;
75129;SDS011;63703;44.716;37.846;2023-02-28T01:51:24;13.18;;;6.03;;
75129;SDS011;63703;44.716;37.846;2023-02-28T01:54:12;16.95;;;6.18;;
75129;SDS011;63703;44.716;37.846;2023-02-28T01:56:43;11.35;;;6.88;;
75129;SDS011;63703;44.716;37.846;2023-02-28T01:59:14;10.20;;;6.07;;
75129;SDS011;63703;44.716;37.846;2023-02-28T02:01:47;15.40;;;6.57;;
75129;SDS011;63703;44.716;37.846;2023-02-28T02:04:13;12.25;;;6.97;;
75129;SDS011;63703;44.716;37.846;2023-02-28T02:06:42;9.20;;;7.47;;
75129;SDS011;63703;44.716;37.846;2023-02-28T02:09:11;12.07;;;6.72;;
75129;SDS011;63703;44.716;37.846;2023-02-28T02:11:37;12.65;;;7.22;;
75129;SDS011;63703;44.716;37.846;2023-02-28T02:14:10;10.75;;;6.18;;
75129;SDS011;63703;44.716;37.846;2023-02-28T02:17:00;13.18;;;5.75;;
75129;SDS011;63703;44.716;37.846;2023-02-28T02:25:31;10.25;;;5.78;;
75129;SDS011;63703;44.716;37.846;2023-02-28T02:36:30;11.18;;;5.82;;
75129;SDS011;63703;44.716;37.846;2023-02-28T02:39:14;12.25;;;5.80;;
75129;SDS011;63703;44.716;37.846;2023-02-28T02:41:51;8.30;;;6.03;;
75129;SDS011;63703;44.716;37.846;2023-02-28T02:44:40;15.35;;;7.63;;
75129;SDS011;63703;44.716;37.846;2023-02-28T02:47:12;10.70;;;6.57;;
75129;SDS011;63703;44.716;37.846;2023-02-28T02:49:43;9.35;;;6.18;;
75129;SDS011;63703;44.716;37.846;2023-02-28T02:52:14;8.52;;;4.97;;
75129;SDS011;63703;44.716;37.846;2023-02-28T02:54:43;11.63;;;5.28;;
75129;SDS011;63703;44.716;37.846;2023-02-28T02:57:22;8.60;;;5.40;;
75129;SDS011;63703;44.716;37.846;2023-02-28T02:59:55;9.77;;;5.75;;
75129;SDS011;63703;44.716;37.846;2023-02-28T03:02:22;7.88;;;6.10;;
75129;SDS011;63703;44.716;37.846;2023-02-28T03:04:58;11.38;;;6.72;;
75129;SDS011;63703;44.716;37.846;2023-02-28T03:07:28;14.68;;;6.53;;
75129;SDS011;63703;44.716;37.846;2023-02-28T03:09:54;12.63;;;7.20;;
75129;SDS011;63703;44.716;37.846;2023-02-28T03:12:30;8.75;;;6.45;;
75129;SDS011;63703;44.716;37.846;2023-02-28T03:15:18;12.07;;;6.45;;
75129;SDS011;63703;44.716;37.846;2023-02-28T03:18:03;14.82;;;6.53;;
75129;SDS011;63703;44.716;37.846;2023-02-28T03:23:19;10.93;;;6.85;;
75129;SDS011;63703;44.716;37.846;2023-02-28T03:26:12;12.13;;;6.18;;
75129;SDS011;63703;44.716;37.846;2023-02-28T03:28:49;10.65;;;6.40;;
75129;SDS011;63703;44.716;37.846;2023-02-28T03:31:39;8.38;;;6.30;;
75129;SDS011;63703;44.716;37.846;2023-02-28T03:36:37;10.73;;;5.72;;
75129;SDS011;63703;44.716;37.846;2023-02-28T03:39:12;8.70;;;5.57;;
75129;SDS011;63703;44.716;37.846;2023-02-28T03:41:49;14.05;;;6.05;;
75129;SDS011;63703;44.716;37.846;2023-02-28T03:44:24;10.23;;;6.43;;
75129;SDS011;63703;44.716;37.846;2023-02-28T03:49:45;9.35;;;5.75;;
75129;SDS011;63703;44.716;37.846;2023-02-28T03:52:14;15.70;;;6.70;;
75129;SDS011;63703;44.716;37.846;2023-02-28T03:54:45;16.20;;;4.00;;
75129;SDS011;63703;44.716;37.846;2023-02-28T03:57:23;10.82;;;7.25;;
75129;SDS011;63703;44.716;37.846;2023-02-28T03:59:59;12.45;;;6.85;;
75129;SDS011;63703;44.716;37.846;2023-02-28T04:02:37;11.80;;;6.55;;
75129;SDS011;63703;44.716;37.846;2023-02-28T04:05:05;9.68;;;5.63;;
75129;SDS011;63703;44.716;37.846;2023-02-28T04:07:32;16.52;;;4.70;;
75129;SDS011;63703;44.716;37.846;2023-02-28T04:09:58;9.48;;;6.82;;
75129;SDS011;63703;44.716;37.846;2023-02-28T04:12:24;13.43;;;6.80;;
75129;SDS011;63703;44.716;37.846;2023-02-28T04:14:50;12.00;;;6.22;;
75129;SDS011;63703;44.716;37.846;2023-02-28T04:17:16;8.70;;;5.80;;
75129;SDS011;63703;44.716;37.846;2023-02-28T04:19:43;11.23;;;5.25;;
75129;SDS011;63703;44.716;37.846;2023-02-28T04:22:09;12.50;;;4.53;;
75129;SDS011;63703;44.716;37.846;2023-02-28T04:24:35;11.90;;;7.35;;
75129;SDS011;63703;44.716;37.846;2023-02-28T04:27:01;9.20;;;7.15;;
75129;SDS011;63703;44.716;37.846;2023-02-28T04:29:28;10.15;;;6.35;;
75129;SDS011;63703;44.716;37.846;2023-02-28T04:31:58;9.75;;;5.70;;
75129;SDS011;63703;44.716;37.846;2023-02-28T04:34:25;12.15;;;4.57;;
75129;SDS011;63703;44.716;37.846;2023-02-28T04:36:52;10.05;;;6.53;;
75129;SDS011;63703;44.716;37.846;2023-02-28T04:39:20;9.07;;;6.15;;
75129;SDS011;63703;44.716;37.846;2023-02-28T04:41:47;9.95;;;6.07;;
75129;SDS011;63703;44.716;37.846;2023-02-28T04:44:13;12.80;;;5.68;;
75129;SDS011;63703;44.716;37.846;2023-02-28T04:46:40;10.57;;;6.43;;
75129;SDS011;63703;44.716;37.846;2023-02-28T04:49:06;8.80;;;6.30;;
75129;SDS011;63703;44.716;37.846;2023-02-28T04:51:33;9.48;;;5.57;;
75129;SDS011;63703;44.716;37.846;2023-02-28T04:53:59;10.02;;;6.40;;
75129;SDS011;63703;44.716;37.846;2023-02-28T04:56:25;11.23;;;6.82;;
75129;SDS011;63703;44.716;37.846;2023-02-28T04:58:51;10.90;;;7.07;;
75129;SDS011;63703;44.716;37.846;2023-02-28T05:01:25;11.43;;;6.03;;
75129;SDS011;63703;44.716;37.846;2023-02-28T05:06:23;10.20;;;6.07;;
75129;SDS011;63703;44.716;37.846;2023-02-28T05:08:51;9.90;;;6.63;;
75129;SDS011;63703;44.716;37.846;2023-02-28T05:11:19;9.02;;;5.57;;
75129;SDS011;63703;44.716;37.846;2023-02-28T05:13:50;9.30;;;5.63;;
75129;SDS011;63703;44.716;37.846;2023-02-28T05:16:17;13.30;;;5.20;;
75129;SDS011;63703;44.716;37.846;2023-02-28T05:18:43;8.13;;;5.38;;
75129;SDS011;63703;44.716;37.846;2023-02-28T05:21:28;11.43;;;5.82;;
75129;SDS011;63703;44.716;37.846;2023-02-28T05:24:00;9.57;;;6.43;;
75129;SDS011;63703;44.716;37.846;2023-02-28T05:26:28;15.05;;;7.15;;
75129;SDS011;63703;44.716;37.846;2023-02-28T05:28:54;12.43;;;6.78;;
75129;SDS011;63703;44.716;37.846;2023-02-28T05:31:21;11.35;;;6.55;;
75129;SDS011;63703;44.716;37.846;2023-02-28T05:33:47;10.43;;;5.90;;
75129;SDS011;63703;44.716;37.846;2023-02-28T05:36:13;9.32;;;4.97;;
75129;SDS011;63703;44.716;37.846;2023-02-28T05:38:39;7.10;;;5.50;;
75129;SDS011;63703;44.716;37.846;2023-02-28T05:41:07;11.65;;;5.72;;
75129;SDS011;63703;44.716;37.846;2023-02-28T05:43:34;10.60;;;5.30;;
75129;SDS011;63703;44.716;37.846;2023-02-28T05:46:02;10.88;;;6.00;;
75129;SDS011;63703;44.716;37.846;2023-02-28T05:48:29;8.32;;;6.15;;
75129;SDS011;63703;44.716;37.846;2023-02-28T05:50:54;11.02;;;5.70;;
75129;SDS011;63703;44.716;37.846;2023-02-28T05:53:23;11.20;;;6.82;;
75129;SDS011;63703;44.716;37.846;2023-02-28T05:55:49;10.23;;;6.25;;
75129;SDS011;63703;44.716;37.846;2023-02-28T05:58:14;11.55;;;6.18;;
75129;SDS011;63703;44.716;37.846;2023-02-28T06:00:40;9.30;;;5.68;;
75129;SDS011;63703;44.716;37.846;2023-02-28T06:03:06;9.80;;;5.38;;
75129;SDS011;63703;44.716;37.846;2023-02-28T06:05:32;14.77;;;5.90;;
75129;SDS011;63703;44.716;37.846;2023-02-28T06:07:58;9.25;;;5.95;;
75129;SDS011;63703;44.716;37.846;2023-02-28T06:10:24;15.88;;;5.63;;
75129;SDS011;63703;44.716;37.846;2023-02-28T06:12:50;11.52;;;5.47;;
75129;SDS011;63703;44.716;37.846;2023-02-28T06:15:16;13.32;;;6.10;;
75129;SDS011;63703;44.716;37.846;2023-02-28T06:17:42;16.58;;;5.85;;
75129;SDS011;63703;44.716;37.846;2023-02-28T06:20:09;11.55;;;5.60;;
75129;SDS011;63703;44.716;37.846;2023-02-28T06:22:38;12.10;;;6.53;;
75129;SDS011;63703;44.716;37.846;2023-02-28T06:25:05;13.65;;;5.20;;
75129;SDS011;63703;44.716;37.846;2023-02-28T06:27:32;10.15;;;6.80;;
75129;SDS011;63703;44.716;37.846;2023-02-28T06:29:59;16.88;;;7.32;;
75129;SDS011;63703;44.716;37.846;2023-02-28T06:32:25;13.02;;;7.15;;
75129;SDS011;63703;44.716;37.846;2023-02-28T06:34:51;15.82;;;6.63;;
75129;SDS011;63703;44.716;37.846;2023-02-28T06:37:18;10.38;;;5.47;;
75129;SDS011;63703;44.716;37.846;2023-02-28T06:39:44;12.57;;;6.85;;
75129;SDS011;63703;44.716;37.846;2023-02-28T06:42:10;9.98;;;5.45;;
75129;SDS011;63703;44.716;37.846;2023-02-28T06:44:36;11.05;;;4.00;;
75129;SDS011;63703;44.716;37.846;2023-02-28T06:47:02;12.65;;;6.35;;
75129;SDS011;63703;44.716;37.846;2023-02-28T06:49:33;7.88;;;4.88;;
75129;SDS011;63703;44.716;37.846;2023-02-28T06:52:01;17.05;;;5.97;;
75129;SDS011;63703;44.716;37.846;2023-02-28T06:54:27;15.25;;;3.55;;
75129;SDS011;63703;44.716;37.846;2023-02-28T06:56:53;17.17;;;6.95;;
75129;SDS011;63703;44.716;37.846;2023-02-28T06:59:19;21.10;;;5.88;;
75129;SDS011;63703;44.716;37.846;2023-02-28T07:01:46;14.07;;;6.28;;
75129;SDS011;63703;44.716;37.846;2023-02-28T07:04:12;14.15;;;6.68;;
75129;SDS011;63703;44.716;37.846;2023-02-28T07:06:38;11.55;;;5.55;;
75129;SDS011;63703;44.716;37.846;2023-02-28T07:09:04;18.55;;;6.18;;
75129;SDS011;63703;44.716;37.846;2023-02-28T07:11:30;6.18;;;4.05;;
75129;SDS011;63703;44.716;37.846;2023-02-28T07:13:57;12.85;;;5.93;;
75129;SDS011;63703;44.716;37.846;2023-02-28T07:16:24;9.02;;;5.55;;
75129;SDS011;63703;44.716;37.846;2023-02-28T07:18:53;12.35;;;5.75;;
75129;SDS011;63703;44.716;37.846;2023-02-28T07:21:20;11.68;;;5.57;;
75129;SDS011;63703;44.716;37.846;2023-02-28T07:23:46;9.30;;;5.13;;
75129;SDS011;63703;44.716;37.846;2023-02-28T07:26:14;13.18;;;6.35;;
75129;SDS011;63703;44.716;37.846;2023-02-28T07:28:42;16.30;;;5.63;;
75129;SDS011;63703;44.716;37.846;2023-02-28T07:31:09;15.90;;;6.10;;
75129;SDS011;63703;44.716;37.846;2023-02-28T07:33:36;14.77;;;6.28;;
75129;SDS011;63703;44.716;37.846;2023-02-28T07:36:10;8.18;;;4.72;;
75129;SDS011;63703;44.716;37.846;2023-02-28T07:38:43;11.43;;;5.70;;
75129;SDS011;63703;44.716;37.846;2023-02-28T07:41:12;15.10;;;6.18;;
75129;SDS011;63703;44.716;37.846;2023-02-28T07:43:38;13.68;;;4.80;;
75129;SDS011;63703;44.716;37.846;2023-02-28T07:46:05;8.02;;;5.10;;
75129;SDS011;63703;44.716;37.846;2023-02-28T07:48:34;7.38;;;4.40;;
75129;SDS011;63703;44.716;37.846;2023-02-28T07:51:01;14.10;;;5.43;;
75129;SDS011;63703;44.716;37.846;2023-02-28T07:53:27;8.93;;;3.75;;
75129;SDS011;63703;44.716;37.846;2023-02-28T07:55:57;13.60;;;5.38;;
75129;SDS011;63703;44.716;37.846;2023-02-28T07:58:24;12.90;;;5.28;;
75129;SDS011;63703;44.716;37.846;2023-02-28T08:00:50;14.30;;;5.75;;
75129;SDS011;63703;44.716;37.846;2023-02-28T08:03:19;14.05;;;5.85;;
75129;SDS011;63703;44.716;37.846;2023-02-28T08:05:46;14.77;;;5.43;;
75129;SDS011;63703;44.716;37.846;2023-02-28T08:08:13;11.90;;;6.07;;
75129;SDS011;63703;44.716;37.846;2023-02-28T08:10:40;12.05;;;6.32;;
75129;SDS011;63703;44.716;37.846;2023-02-28T08:13:06;15.18;;;6.60;;
75129;SDS011;63703;44.716;37.846;2023-02-28T08:15:33;14.43;;;6.15;;
75129;SDS011;63703;44.716;37.846;2023-02-28T08:17:58;15.07;;;6.68;;
75129;SDS011;63703;44.716;37.846;2023-02-28T08:20:25;19.73;;;6.28;;
75129;SDS011;63703;44.716;37.846;2023-02-28T08:22:51;8.90;;;5.75;;
75129;SDS011;63703;44.716;37.846;2023-02-28T08:25:17;18.42;;;5.57;;
75129;SDS011;63703;44.716;37.846;2023-02-28T08:27:43;9.43;;;5.32;;
75129;SDS011;63703;44.716;37.846;2023-02-28T08:30:13;14.63;;;6.43;;
75129;SDS011;63703;44.716;37.846;2023-02-28T08:32:40;15.95;;;10.68;;
75129;SDS011;63703;44.716;37.846;2023-02-28T08:35:06;12.68;;;6.13;;
75129;SDS011;63703;44.716;37.846;2023-02-28T08:37:34;14.43;;;6.80;;
75129;SDS011;63703;44.716;37.846;2023-02-28T08:40:00;16.67;;;7.35;;
75129;SDS011;63703;44.716;37.846;2023-02-28T08:42:26;21.45;;;8.07;;
75129;SDS011;63703;44.716;37.846;2023-02-28T08:44:52;11.95;;;4.15;;
75129;SDS011;63703;44.716;37.846;2023-02-28T08:47:18;12.50;;;6.57;;
75129;SDS011;63703;44.716;37.846;2023-02-28T08:49:44;12.93;;;6.47;;
75129;SDS011;63703;44.716;37.846;2023-02-28T08:52:10;10.15;;;3.63;;
75129;SDS011;63703;44.716;37.846;2023-02-28T08:54:36;12.18;;;6.65;;
75129;SDS011;63703;44.716;37.846;2023-02-28T08:57:02;17.55;;;6.88;;
75129;SDS011;63703;44.716;37.846;2023-02-28T08:59:29;14.13;;;6.20;;
75129;SDS011;63703;44.716;37.846;2023-02-28T09:01:55;13.77;;;6.40;;
75129;SDS011;63703;44.716;37.846;2023-02-28T09:04:20;14.60;;;6.57;;
75129;SDS011;63703;44.716;37.846;2023-02-28T09:06:47;14.13;;;6.57;;
75129;SDS011;63703;44.716;37.846;2023-02-28T09:09:14;9.02;;;4.47;;
75129;SDS011;63703;44.716;37.846;2023-02-28T09:11:40;11.30;;;5.13;;
75129;SDS011;63703;44.716;37.846;2023-02-28T09:14:06;11.27;;;5.95;;
75129;SDS011;63703;44.716;37.846;2023-02-28T09:16:33;9.60;;;6.10;;
75129;SDS011;63703;44.716;37.846;2023-02-28T09:18:59;9.85;;;5.07;;
75129;SDS011;63703;44.716;37.846;2023-02-28T09:21:25;14.98;;;6.45;;
75129;SDS011;63703;44.716;37.846;2023-02-28T09:23:51;11.48;;;5.45;;
75129;SDS011;63703;44.716;37.846;2023-02-28T09:26:18;8.77;;;6.13;;
75129;SDS011;63703;44.716;37.846;2023-02-28T09:31:14;10.13;;;6.45;;
75129;SDS011;63703;44.716;37.846;2023-02-28T09:33:46;10.20;;;4.70;;
75129;SDS011;63703;44.716;37.846;2023-02-28T09:36:13;6.55;;;3.58;;
75129;SDS011;63703;44.716;37.846;2023-02-28T09:38:38;12.00;;;4.93;;
75129;SDS011;63703;44.716;37.846;2023-02-28T09:41:16;7.70;;;4.63;;
75129;SDS011;63703;44.716;37.846;2023-02-28T09:43:45;9.63;;;4.72;;
75129;SDS011;63703;44.716;37.846;2023-02-28T09:46:21;12.55;;;6.18;;
75129;SDS011;63703;44.716;37.846;2023-02-28T09:48:54;14.23;;;5.15;;
75129;SDS011;63703;44.716;37.846;2023-02-28T09:54:15;7.00;;;4.00;;
75129;SDS011;63703;44.716;37.846;2023-02-28T09:56:47;7.40;;;4.65;;
75129;SDS011;63703;44.716;37.846;2023-02-28T09:59:25;6.63;;;3.30;;
75129;SDS011;63703;44.716;37.846;2023-02-28T10:02:30;9.75;;;4.93;;
75129;SDS011;63703;44.716;37.846;2023-02-28T10:05:08;11.70;;;4.70;;
75129;SDS011;63703;44.716;37.846;2023-02-28T10:11:09;8.18;;;5.25;;
75129;SDS011;63703;44.716;37.846;2023-02-28T10:27:15;7.55;;;4.45;;
75129;SDS011;63703;44.716;37.846;2023-02-28T10:29:47;7.40;;;4.85;;
75129;SDS011;63703;44.716;37.846;2023-02-28T10:32:16;7.90;;;4.50;;
75129;SDS011;63703;44.716;37.846;2023-02-28T10:34:53;9.05;;;4.70;;
75129;SDS011;63703;44.716;37.846;2023-02-28T10:37:22;8.07;;;4.97;;
75129;SDS011;63703;44.716;37.846;2023-02-28T10:39:48;10.55;;;4.72;;
75129;SDS011;63703;44.716;37.846;2023-02-28T10:42:19;9.30;;;5.25;;
75129;SDS011;63703;44.716;37.846;2023-02-28T10:47:37;8.35;;;4.93;;
75129;SDS011;63703;44.716;37.846;2023-02-28T10:50:35;7.70;;;5.07;;
75129;SDS011;63703;44.716;37.846;2023-02-28T10:53:13;8.38;;;5.70;;
75129;SDS011;63703;44.716;37.846;2023-02-28T10:55:40;9.77;;;6.15;;
75129;SDS011;63703;44.716;37.846;2023-02-28T11:10:56;6.90;;;4.72;;
75129;SDS011;63703;44.716;37.846;2023-02-28T11:13:29;9.27;;;4.97;;
75129;SDS011;63703;44.716;37.846;2023-02-28T11:28:30;7.47;;;4.30;;
75129;SDS011;63703;44.716;37.846;2023-02-28T11:31:15;7.45;;;4.68;;
75129;SDS011;63703;44.716;37.846;2023-02-28T11:33:53;8.55;;;5.20;;
75129;SDS011;63703;44.716;37.846;2023-02-28T11:36:22;10.40;;;4.85;;
75129;SDS011;63703;44.716;37.846;2023-02-28T11:51:53;8.15;;;4.47;;
75129;SDS011;63703;44.716;37.846;2023-02-28T11:54:46;8.55;;;5.05;;
75129;SDS011;63703;44.716;37.846;2023-02-28T12:00:27;9.63;;;6.22;;
75129;SDS011;63703;44.716;37.846;2023-02-28T12:06:40;7.28;;;4.88;;
75129;SDS011;63703;44.716;37.846;2023-02-28T12:11:55;12.30;;;5.70;;
75129;SDS011;63703;44.716;37.846;2023-02-28T12:14:50;9.50;;;3.58;;
75129;SDS011;63703;44.716;37.846;2023-02-28T12:20:25;7.88;;;4.60;;
75129;SDS011;63703;44.716;37.846;2023-02-28T12:23:18;9.80;;;4.95;;
75129;SDS011;63703;44.716;37.846;2023-02-28T12:28:54;10.13;;;4.10;;
75129;SDS011;63703;44.716;37.846;2023-02-28T12:32:11;10.65;;;5.00;;
75129;SDS011;63703;44.716;37.846;2023-02-28T12:34:46;10.95;;;5.20;;
75129;SDS011;63703;44.716;37.846;2023-02-28T12:37:22;8.30;;;3.63;;
75129;SDS011;63703;44.716;37.846;2023-02-28T12:40:05;10.95;;;5.10;;
75129;SDS011;63703;44.716;37.846;2023-02-28T12:45:10;10.60;;;5.15;;
75129;SDS011;63703;44.716;37.846;2023-02-28T12:47:46;9.32;;;5.00;;
75129;SDS011;63703;44.716;37.846;2023-02-28T12:50:17;8.88;;;5.72;;
75129;SDS011;63703;44.716;37.846;2023-02-28T12:55:45;12.85;;;5.18;;
75129;SDS011;63703;44.716;37.846;2023-02-28T12:58:43;8.85;;;4.43;;
75129;SDS011;63703;44.716;37.846;2023-02-28T13:04:08;10.95;;;4.95;;
75129;SDS011;63703;44.716;37.846;2023-02-28T13:09:36;7.60;;;3.40;;
75129;SDS011;63703;44.716;37.846;2023-02-28T13:12:13;10.35;;;4.22;;
75129;SDS011;63703;44.716;37.846;2023-02-28T13:14:40;12.20;;;5.03;;
75129;SDS011;63703;44.716;37.846;2023-02-28T13:24:54;12.70;;;6.28;;
75129;SDS011;63703;44.716;37.846;2023-02-28T13:27:37;10.57;;;5.05;;
75129;SDS011;63703;44.716;37.846;2023-02-28T13:39:00;9.90;;;5.10;;
75129;SDS011;63703;44.716;37.846;2023-02-28T13:46:36;11.88;;;6.40;;
75129;SDS011;63703;44.716;37.846;2023-02-28T13:49:18;16.40;;;7.30;;
75129;SDS011;63703;44.716;37.846;2023-02-28T13:57:42;21.38;;;9.50;;
75129;SDS011;63703;44.716;37.846;2023-02-28T14:05:33;30.55;;;10.10;;
75129;SDS011;63703;44.716;37.846;2023-02-28T14:08:04;27.58;;;10.30;;
75129;SDS011;63703;44.716;37.846;2023-02-28T14:10:38;29.52;;;10.73;;
75129;SDS011;63703;44.716;37.846;2023-02-28T14:13:14;21.23;;;10.98;;
75129;SDS011;63703;44.716;37.846;2023-02-28T14:16:10;26.55;;;10.82;;
75129;SDS011;63703;44.716;37.846;2023-02-28T14:18:40;18.92;;;9.23;;
75129;SDS011;63703;44.716;37.846;2023-02-28T14:21:20;31.75;;;11.27;;
75129;SDS011;63703;44.716;37.846;2023-02-28T14:24:03;22.73;;;10.48;;
75129;SDS011;63703;44.716;37.846;2023-02-28T14:26:57;16.73;;;9.23;;
75129;SDS011;63703;44.716;37.846;2023-02-28T14:38:04;24.83;;;11.52;;
75129;SDS011;63703;44.716;37.846;2023-02-28T14:40:33;28.00;;;12.32;;
75129;SDS011;63703;44.716;37.846;2023-02-28T14:43:02;22.85;;;11.65;;
75129;SDS011;63703;44.716;37.846;2023-02-28T14:45:31;29.70;;;10.68;;
75129;SDS011;63703;44.716;37.846;2023-02-28T14:47:59;25.35;;;11.70;;
75129;SDS011;63703;44.716;37.846;2023-02-28T14:50:31;28.67;;;12.43;;
75129;SDS011;63703;44.716;37.846;2023-02-28T14:53:00;22.05;;;9.65;;
75129;SDS011;63703;44.716;37.846;2023-02-28T14:55:32;20.85;;;8.82;;
75129;SDS011;63703;44.716;37.846;2023-02-28T14:58:01;34.30;;;12.32;;
75129;SDS011;63703;44.716;37.846;2023-02-28T15:00:34;27.58;;;11.02;;
75129;SDS011;63703;44.716;37.846;2023-02-28T15:05:54;21.80;;;10.48;;
75129;SDS011;63703;44.716;37.846;2023-02-28T15:08:24;30.73;;;11.73;;
75129;SDS011;63703;44.716;37.846;2023-02-28T15:16:13;28.30;;;11.70;;
75129;SDS011;63703;44.716;37.846;2023-02-28T15:18:45;27.92;;;12.15;;
75129;SDS011;63703;44.716;37.846;2023-02-28T15:21:33;25.92;;;12.88;;
75129;SDS011;63703;44.716;37.846;2023-02-28T15:24:06;24.00;;;12.07;;
75129;SDS011;63703;44.716;37.846;2023-02-28T15:26:34;25.10;;;13.15;;
75129;SDS011;63703;44.716;37.846;2023-02-28T15:29:08;28.63;;;11.52;;
75129;SDS011;63703;44.716;37.846;2023-02-28T15:31:43;26.73;;;12.50;;
75129;SDS011;63703;44.716;37.846;2023-02-28T15:34:21;28.15;;;13.00;;
75129;SDS011;63703;44.716;37.846;2023-02-28T15:40:12;26.58;;;13.07;;
75129;SDS011;63703;44.716;37.846;2023-02-28T15:43:07;25.95;;;12.15;;
75129;SDS011;63703;44.716;37.846;2023-02-28T15:45:37;39.42;;;16.33;;
75129;SDS011;63703;44.716;37.846;2023-02-28T15:48:28;43.92;;;23.20;;
75129;SDS011;63703;44.716;37.846;2023-02-28T15:51:13;43.08;;;21.83;;
75129;SDS011;63703;44.716;37.846;2023-02-28T15:56:29;33.17;;;13.50;;
75129;SDS011;63703;44.716;37.846;2023-02-28T15:59:01;30.90;;;14.20;;
75129;SDS011;63703;44.716;37.846;2023-02-28T16:01:31;28.75;;;11.50;;
75129;SDS011;63703;44.716;37.846;2023-02-28T16:04:02;28.33;;;11.32;;
75129;SDS011;63703;44.716;37.846;2023-02-28T16:06:44;24.73;;;13.50;;
75129;SDS011;63703;44.716;37.846;2023-02-28T16:09:12;24.45;;;11.48;;
75129;SDS011;63703;44.716;37.846;2023-02-28T16:11:44;23.10;;;10.43;;
75129;SDS011;63703;44.716;37.846;2023-02-28T16:14:17;25.10;;;9.45;;
75129;SDS011;63703;44.716;37.846;2023-02-28T16:17:02;21.20;;;8.20;;
75129;SDS011;63703;44.716;37.846;2023-02-28T16:19:29;22.58;;;8.60;;
75129;SDS011;63703;44.716;37.846;2023-02-28T16:21:56;18.52;;;6.72;;
75129;SDS011;63703;44.716;37.846;2023-02-28T16:24:22;31.15;;;11.63;;
75129;SDS011;63703;44.716;37.846;2023-02-28T16:26:49;19.75;;;10.20;;
75129;SDS011;63703;44.716;37.846;2023-02-28T16:29:27;23.77;;;10.18;;
75129;SDS011;63703;44.716;37.846;2023-02-28T16:31:59;20.33;;;10.20;;
75129;SDS011;63703;44.716;37.846;2023-02-28T16:34:25;19.05;;;9.27;;
75129;SDS011;63703;44.716;37.846;2023-02-28T16:36:51;19.10;;;10.52;;
75129;SDS011;63703;44.716;37.846;2023-02-28T16:39:18;20.35;;;9.63;;
75129;SDS011;63703;44.716;37.846;2023-02-28T16:41:48;21.75;;;6.57;;
75129;SDS011;63703;44.716;37.846;2023-02-28T16:44:28;19.60;;;7.68;;
75129;SDS011;63703;44.716;37.846;2023-02-28T16:46:55;18.50;;;10.13;;
75129;SDS011;63703;44.716;37.846;2023-02-28T16:49:21;19.20;;;8.52;;
75129;SDS011;63703;44.716;37.846;2023-02-28T16:51:48;14.05;;;7.45;;
75129;SDS011;63703;44.716;37.846;2023-02-28T16:54:14;15.70;;;7.25;;
75129;SDS011;63703;44.716;37.846;2023-02-28T16:56:41;17.27;;;8.60;;
75129;SDS011;63703;44.716;37.846;2023-02-28T16:59:10;20.77;;;8.57;;
75129;SDS011;63703;44.716;37.846;2023-02-28T17:01:36;21.30;;;8.05;;
75129;SDS011;63703;44.716;37.846;2023-02-28T17:04:02;22.33;;;9.25;;
75129;SDS011;63703;44.716;37.846;2023-02-28T17:06:29;17.88;;;8.98;;
75129;SDS011;63703;44.716;37.846;2023-02-28T17:08:56;19.95;;;8.43;;
75129;SDS011;63703;44.716;37.846;2023-02-28T17:11:23;21.08;;;9.43;;
75129;SDS011;63703;44.716;37.846;2023-02-28T17:13:50;24.58;;;9.70;;
75129;SDS011;63703;44.716;37.846;2023-02-28T17:19:02;16.58;;;8.23;;
75129;SDS011;63703;44.716;37.846;2023-02-28T17:21:30;19.98;;;10.48;;
75129;SDS011;63703;44.716;37.846;2023-02-28T17:23:57;24.58;;;10.32;;
75129;SDS011;63703;44.716;37.846;2023-02-28T17:26:23;14.63;;;10.00;;
75129;SDS011;63703;44.716;37.846;2023-02-28T17:28:50;25.02;;;9.48;;
75129;SDS011;63703;44.716;37.846;2023-02-28T17:31:17;17.98;;;7.95;;
75129;SDS011;63703;44.716;37.846;2023-02-28T17:33:43;15.50;;;8.52;;
75129;SDS011;63703;44.716;37.846;2023-02-28T17:36:12;25.83;;;9.07;;
75129;SDS011;63703;44.716;37.846;2023-02-28T17:38:40;16.23;;;6.40;;
75129;SDS011;63703;44.716;37.846;2023-02-28T17:41:06;24.50;;;9.40;;